Time;durP1;ratioP1;P1;durP2;ratioP2;P2;SDS_P1;SDS_P2;PMS_P1;PMS_P2;Temp;Humidity;BMP_temperature;BMP_pressure;BME280_temperature;BME280_humidity;BME280_pressure;Samples;Min_cycle;Max_cycle;Signal;HPM_P1;HPM_P2
2023/03/17 00:02:03;;;;;;;17.80;9.40;;;;;;;1.20;64.08;100561.66;4944521;28;20055;-69
2023/03/17 00:04:34;;;;;;;21.88;10.18;;;;;;;0.92;64.86;100570.31;4944809;28;20054;-68
2023/03/17 00:07:07;;;;;;;16.65;9.27;;;;;;;0.97;65.75;100567.88;4946470;28;20069;-66
2023/03/17 00:09:39;;;;;;;19.00;9.50;;;;;;;1.10;66.08;100559.69;4945169;28;20062;-67
2023/03/17 00:12:11;;;;;;;21.02;10.57;;;;;;;1.26;65.38;100546.38;4943072;28;20051;-66
2023/03/17 00:14:43;;;;;;;25.00;10.10;;;;;;;1.46;65.30;100543.44;4936109;28;20886;-65
2023/03/17 00:17:14;;;;;;;19.85;11.60;;;;;;;1.62;64.57;100545.56;4945841;28;20047;-68
2023/03/17 00:19:45;;;;;;;21.33;11.82;;;;;;;1.86;64.19;100534.09;4944236;28;20051;-66
2023/03/17 00:22:18;;;;;;;14.68;7.95;;;;;;;2.06;63.03;100537.13;4944238;28;20061;-65
2023/03/17 00:24:51;;;;;;;13.85;7.68;;;;;;;1.83;63.01;100524.59;4948209;27;20052;-64
2023/03/17 00:27:21;;;;;;;14.80;8.05;;;;;;;1.70;62.92;100535.44;4943275;27;20644;-67
2023/03/17 00:29:52;;;;;;;10.27;6.93;;;;;;;1.42;63.07;100470.41;4949239;27;20044;-67
2023/03/17 00:32:23;;;;;;;11.90;8.07;;;;;;;1.83;64.08;100522.00;4947501;27;20062;-64
2023/03/17 00:34:53;;;;;;;12.95;7.68;;;;;;;1.80;64.50;100508.16;4948718;27;20050;-65
2023/03/17 00:37:24;;;;;;;14.88;7.82;;;;;;;1.49;65.65;100512.59;4949847;27;20051;-64
2023/03/17 00:39:56;;;;;;;16.17;8.48;;;;;;;1.33;66.47;100505.34;4947398;27;20058;-66
2023/03/17 00:42:27;;;;;;;17.60;9.02;;;;;;;1.43;67.03;100491.88;4947565;27;20439;-66
2023/03/17 00:44:57;;;;;;;19.10;8.73;;;;;;;1.71;67.57;100491.66;4947479;27;20051;-66
2023/03/17 00:47:28;;;;;;;17.27;9.05;;;;;;;1.94;67.51;100497.34;4947254;27;20058;-63
2023/03/17 00:49:59;;;;;;;16.67;8.70;;;;;;;1.95;66.87;100487.94;4943919;27;20043;-64
2023/03/17 00:52:29;;;;;;;15.55;8.43;;;;;;;2.01;67.15;100490.63;4944605;27;20067;-65
2023/03/17 00:55:02;;;;;;;16.65;9.65;;;;;;;2.05;66.90;100489.88;4946858;27;20674;-65
2023/03/17 00:57:33;;;;;;;16.00;9.10;;;;;;;1.95;66.51;100472.47;4935154;27;20048;-64
2023/03/17 01:00:04;;;;;;;15.85;8.43;;;;;;;1.70;66.08;100466.75;4945171;27;20051;-65
2023/03/17 01:02:35;;;;;;;14.60;8.50;;;;;;;1.48;65.65;100470.53;4946187;27;20367;-64
2023/03/17 01:05:06;;;;;;;15.77;9.10;;;;;;;1.68;65.64;100449.53;4945313;27;20048;-64
2023/03/17 01:07:37;;;;;;;20.77;9.13;;;;;;;1.99;64.83;100448.47;4946452;27;20052;-63
2023/03/17 01:10:14;;;;;;;14.27;8.52;;;;;;;2.12;63.38;100424.72;4944024;27;21553;-63
2023/03/17 01:12:46;;;;;;;16.08;8.35;;;;;;;2.20;63.12;100431.72;4935398;27;20052;-63
2023/03/17 01:15:16;;;;;;;13.98;8.90;;;;;;;1.89;62.32;100389.84;4946264;27;20502;-63
2023/03/17 01:17:48;;;;;;;17.33;8.60;;;;;;;1.99;62.52;100417.56;4945235;27;20060;-61
2023/03/17 01:20:21;;;;;;;17.38;8.57;;;;;;;1.86;62.52;100400.09;4956172;27;20081;-63
2023/03/17 01:22:52;;;;;;;12.45;7.35;;;;;;;1.87;63.25;100407.88;4937587;27;20064;-65
2023/03/17 01:25:26;;;;;;;13.55;8.25;;;;;;;1.56;63.36;100416.63;4946197;27;20560;-61
2023/03/17 01:27:58;;;;;;;15.88;8.02;;;;;;;0.76;64.95;100337.53;4944930;27;20059;-65
2023/03/17 01:30:31;;;;;;;17.90;8.60;;;;;;;1.05;68.87;100399.16;4946077;27;20055;-65
2023/03/17 01:33:02;;;;;;;20.13;9.18;;;;;;;1.28;69.80;100400.56;4939051;27;20056;-63
2023/03/17 01:35:33;;;;;;;15.30;8.85;;;;;;;1.35;69.15;100390.38;4942596;27;20171;-64
2023/03/17 01:38:03;;;;;;;19.42;9.38;;;;;;;1.54;69.38;100356.47;4945452;27;20047;-65
2023/03/17 01:40:38;;;;;;;21.88;9.13;;;;;;;1.90;68.77;100350.38;4945110;27;20062;-65
2023/03/17 01:43:19;;;;;;;15.70;10.10;;;;;;;2.16;68.55;100336.28;4946033;27;20051;-64
2023/03/17 01:46:19;;;;;;;17.98;8.50;;;;;;;2.53;66.90;100365.31;4934552;27;20048;-62
2023/03/17 01:49:04;;;;;;;13.55;8.73;;;;;;;1.93;68.80;100376.19;4945894;27;20688;-64
2023/03/17 01:51:39;;;;;;;14.02;9.00;;;;;;;1.35;71.80;100374.94;4935487;27;20478;-63
2023/03/17 01:54:15;;;;;;;17.48;10.45;;;;;;;0.69;72.66;100309.94;4944935;27;20061;-64
2023/03/17 01:56:52;;;;;;;17.75;9.73;;;;;;;1.49;74.26;100378.69;4935719;27;20055;-61
2023/03/17 01:59:27;;;;;;;16.92;9.20;;;;;;;1.83;73.41;100353.66;4934911;27;20199;-62
2023/03/17 02:02:03;;;;;;;15.60;9.02;;;;;;;2.03;72.46;100365.25;4944837;27;20143;-64
2023/03/17 02:04:34;;;;;;;14.68;9.18;;;;;;;1.85;71.78;100357.16;4933572;28;20142;-63
2023/03/17 02:07:06;;;;;;;15.13;8.52;;;;;;;1.64;72.54;100353.25;4945997;27;20055;-63
2023/03/17 02:09:37;;;;;;;14.10;8.23;;;;;;;1.89;71.97;100358.94;4944504;27;20055;-64
2023/03/17 02:12:10;;;;;;;11.63;7.90;;;;;;;2.21;71.86;100345.81;4944630;27;20064;-61
2023/03/17 02:14:41;;;;;;;16.00;8.13;;;;;;;2.48;71.66;100351.47;4940653;27;20060;-65
2023/03/17 02:17:11;;;;;;;12.50;8.40;;;;;;;2.68;70.30;100338.91;4948519;27;20052;-64
2023/03/17 02:19:42;;;;;;;17.80;8.55;;;;;;;2.59;69.79;100318.97;4945904;27;20162;-65
2023/03/17 02:22:14;;;;;;;11.77;7.60;;;;;;;2.49;67.30;100317.09;4945019;27;20117;-62
2023/03/17 02:24:49;;;;;;;13.77;7.78;;;;;;;2.11;67.79;100288.06;4944974;27;20047;-63
2023/03/17 02:27:25;;;;;;;13.15;7.82;;;;;;;2.20;68.28;100271.88;4944696;27;20043;-64
2023/03/17 02:29:55;;;;;;;13.45;7.47;;;;;;;2.66;68.13;100282.97;4933572;27;20154;-62
2023/03/17 02:32:26;;;;;;;12.60;7.88;;;;;;;2.86;65.27;100281.56;4943205;27;20051;-65
2023/03/17 02:34:56;;;;;;;14.38;7.78;;;;;;;2.96;65.42;100273.13;4944475;27;20059;-65
2023/03/17 02:37:29;;;;;;;17.98;7.50;;;;;;;3.09;64.78;100258.66;4945081;27;20055;-65
2023/03/17 02:40:00;;;;;;;14.23;7.28;;;;;;;3.15;63.71;100247.56;4943896;27;20065;-64
2023/03/17 02:42:31;;;;;;;11.35;7.93;;;;;;;3.17;62.86;100245.84;4937332;27;20056;-63
2023/03/17 02:45:02;;;;;;;12.77;7.03;;;;;;;2.91;63.19;100243.78;4949191;27;20059;-65
2023/03/17 02:47:32;;;;;;;12.55;7.25;;;;;;;2.51;63.31;100238.03;4944326;27;20214;-64
2023/03/17 02:50:03;;;;;;;15.20;8.20;;;;;;;2.59;64.24;100236.44;4942560;27;20051;-65
2023/03/17 02:52:36;;;;;;;15.07;7.22;;;;;;;2.79;63.51;100226.41;4942155;27;20070;-62
2023/03/17 02:55:07;;;;;;;11.80;7.57;;;;;;;2.76;62.73;100233.25;4945698;27;20880;-62
2023/03/17 02:57:37;;;;;;;12.52;7.78;;;;;;;2.26;64.21;100252.22;4944248;27;20082;-63
2023/03/17 03:00:10;;;;;;;13.32;8.27;;;;;;;1.51;66.89;100249.13;4943024;27;20055;-64
2023/03/17 03:02:41;;;;;;;17.00;8.68;;;;;;;0.94;70.38;100269.34;4943372;27;20053;-64
2023/03/17 03:05:12;;;;;;;23.20;7.65;;;;;;;-0.05;76.57;100266.97;4946829;28;20116;-63
2023/03/17 03:07:45;;;;;;;19.45;7.65;;;;;;;-0.23;78.67;100281.84;4944637;28;20059;-64
2023/03/17 03:10:19;;;;;;;16.95;8.05;;;;;;;-0.07;78.52;100252.34;4929930;27;20036;-63
2023/03/17 03:12:49;;;;;;;17.63;7.25;;;;;;;0.20;76.48;100241.88;4939987;28;20363;-62
2023/03/17 03:15:20;;;;;;;17.63;8.13;;;;;;;0.84;73.51;100246.00;4944418;27;20494;-63
2023/03/17 03:17:51;;;;;;;11.07;7.18;;;;;;;1.41;71.09;100236.06;4941894;28;20121;-66
2023/03/17 03:20:22;;;;;;;13.65;7.47;;;;;;;1.56;68.72;100192.56;4945506;28;20368;-64
2023/03/17 03:22:54;;;;;;;14.68;6.68;;;;;;;2.13;66.11;100220.22;4945759;28;20058;-64
2023/03/17 03:25:25;;;;;;;13.02;6.43;;;;;;;2.39;65.42;100206.88;4944915;28;20055;-63
2023/03/17 03:27:56;;;;;;;12.13;6.88;;;;;;;2.87;64.80;100211.06;4944170;28;20043;-66
2023/03/17 03:30:26;;;;;;;12.05;6.75;;;;;;;3.28;63.74;100208.16;4945218;28;20051;-64
2023/03/17 03:32:57;;;;;;;11.30;7.03;;;;;;;3.26;61.40;100194.34;4945900;28;20058;-64
2023/03/17 03:35:28;;;;;;;12.35;7.55;;;;;;;2.59;62.09;100106.59;4943231;28;20105;-66
2023/03/17 03:38:01;;;;;;;11.52;6.78;;;;;;;2.77;61.20;100193.69;4944569;28;20051;-66
2023/03/17 03:40:31;;;;;;;16.17;7.63;;;;;;;2.10;63.65;100209.88;4938581;28;20520;-67
2023/03/17 03:43:02;;;;;;;18.90;8.52;;;;;;;1.80;66.20;100191.28;4946377;28;20048;-66
2023/03/17 03:45:50;;;;;;;17.70;7.82;;;;;;;1.93;69.77;100191.53;4931843;28;20739;-66
2023/03/17 03:48:22;;;;;;;12.95;7.30;;;;;;;2.20;70.14;100199.69;4951879;28;20079;-65
2023/03/17 03:50:57;;;;;;;14.40;7.70;;;;;;;2.46;70.08;100177.78;4944323;28;20058;-66
2023/03/17 03:53:30;;;;;;;15.18;6.72;;;;;;;2.81;68.41;100174.84;4943745;28;20122;-67
2023/03/17 03:56:00;;;;;;;10.90;6.72;;;;;;;3.23;66.18;100183.97;4944599;28;20215;-67
2023/03/17 03:58:31;;;;;;;14.35;7.15;;;;;;;3.62;64.89;100177.50;4943357;27;20877;-66
2023/03/17 04:01:06;;;;;;;13.63;7.13;;;;;;;3.96;62.87;100175.28;4951287;27;20056;-67
2023/03/17 04:03:36;;;;;;;16.60;7.10;;;;;;;3.72;57.67;100174.19;4946128;27;20055;-66
2023/03/17 04:06:07;;;;;;;9.50;6.15;;;;;;;3.45;57.22;100164.44;4947939;27;20119;-67
2023/03/17 04:08:39;;;;;;;12.48;6.45;;;;;;;3.20;57.71;100189.13;4949176;27;20060;-66
2023/03/17 04:11:10;;;;;;;11.88;5.97;;;;;;;2.87;56.71;100185.25;4947633;27;20120;-67
2023/03/17 04:13:40;;;;;;;15.15;6.88;;;;;;;2.39;51.14;100201.72;4946309;27;20060;-66
2023/03/17 04:16:11;;;;;;;14.05;7.20;;;;;;;2.13;51.19;100204.75;4954973;27;20532;-63
2023/03/17 04:18:41;;;;;;;12.93;7.32;;;;;;;2.26;52.59;100194.66;4951975;27;20081;-65
2023/03/17 04:21:12;;;;;;;11.50;6.90;;;;;;;2.08;53.19;100179.75;4948780;27;20128;-64
2023/03/17 04:23:44;;;;;;;12.75;7.30;;;;;;;2.24;51.93;100178.28;4947715;27;20815;-66
2023/03/17 04:26:16;;;;;;;15.73;7.38;;;;;;;2.35;52.59;100179.34;4947537;27;20059;-65
2023/03/17 04:28:47;;;;;;;11.20;6.35;;;;;;;2.40;52.10;100180.28;4947353;27;20066;-64
2023/03/17 04:31:17;;;;;;;12.60;6.85;;;;;;;2.12;51.46;100151.47;4946920;27;20054;-65
2023/03/17 04:33:48;;;;;;;11.45;6.47;;;;;;;2.29;49.43;100174.06;4947059;27;20043;-65
2023/03/17 04:36:20;;;;;;;12.73;7.13;;;;;;;2.07;48.68;100166.00;4946576;27;20104;-64
2023/03/17 04:38:52;;;;;;;12.63;6.95;;;;;;;1.88;48.51;100161.38;4943866;27;20061;-65
2023/03/17 04:41:23;;;;;;;13.05;7.45;;;;;;;1.82;48.93;100163.84;4946844;27;20054;-64
2023/03/17 04:43:53;;;;;;;11.65;7.22;;;;;;;1.86;49.83;100169.06;4947480;27;20389;-64
2023/03/17 04:46:24;;;;;;;12.55;6.90;;;;;;;1.96;47.95;100164.94;4947635;27;20051;-64
2023/03/17 04:48:57;;;;;;;12.00;6.50;;;;;;;2.29;46.36;100161.19;4946155;27;20052;-65
2023/03/17 04:51:28;;;;;;;12.55;6.75;;;;;;;2.28;46.28;100118.19;4945983;27;20048;-64
2023/03/17 04:54:00;;;;;;;13.00;6.90;;;;;;;2.65;45.81;100157.41;4946982;27;20566;-63
2023/03/17 04:56:31;;;;;;;12.32;7.13;;;;;;;2.41;45.07;100143.31;4943232;27;20121;-64
2023/03/17 04:59:01;;;;;;;14.20;7.85;;;;;;;2.12;46.64;100141.16;4950859;27;20107;-63
2023/03/17 05:01:32;;;;;;;17.05;7.10;;;;;;;2.04;47.51;100147.91;4949028;27;20045;-64
2023/03/17 05:04:02;;;;;;;16.58;6.55;;;;;;;2.06;48.49;100161.69;4947551;27;20078;-63
2023/03/17 05:06:33;;;;;;;11.95;6.38;;;;;;;2.07;46.49;100147.06;4946215;27;20174;-63
2023/03/17 05:09:05;;;;;;;11.95;7.00;;;;;;;2.16;47.93;100160.97;4946205;27;20047;-64
2023/03/17 05:11:35;;;;;;;9.90;6.80;;;;;;;1.55;49.10;100054.38;4946346;27;20482;-63
2023/03/17 05:14:06;;;;;;;18.20;7.85;;;;;;;2.46;48.36;100159.72;4946268;27;20112;-63
2023/03/17 05:16:36;;;;;;;17.13;7.40;;;;;;;2.81;48.02;100143.88;4941066;27;20043;-63
2023/03/17 05:19:07;;;;;;;11.93;7.03;;;;;;;2.81;47.86;100155.06;4947045;27;20059;-62
2023/03/17 05:21:38;;;;;;;12.35;6.95;;;;;;;2.70;46.57;100160.94;4945888;27;20059;-63
2023/03/17 05:24:10;;;;;;;14.13;7.18;;;;;;;2.43;48.61;100157.09;4944704;27;20044;-63
2023/03/17 05:26:41;;;;;;;13.68;7.25;;;;;;;1.99;48.85;100165.00;4943092;27;20048;-63
2023/03/17 05:29:11;;;;;;;10.85;6.53;;;;;;;1.65;49.21;100169.56;4951699;27;20084;-63
2023/03/17 05:31:42;;;;;;;16.20;7.32;;;;;;;1.51;50.23;100168.44;4948533;27;20053;-63
2023/03/17 05:34:12;;;;;;;15.63;6.85;;;;;;;1.41;50.68;100153.66;4945810;27;20054;-63
2023/03/17 05:36:43;;;;;;;12.10;6.95;;;;;;;1.47;51.42;100158.91;4946684;27;20051;-63
2023/03/17 05:39:15;;;;;;;10.50;6.50;;;;;;;1.20;50.17;100169.53;4946608;27;20047;-63
2023/03/17 05:41:46;;;;;;;16.33;6.97;;;;;;;1.05;51.30;100175.28;4944611;27;20058;-63
2023/03/17 05:44:16;;;;;;;14.55;7.22;;;;;;;1.01;51.52;100173.47;4945320;27;20470;-63
2023/03/17 05:46:47;;;;;;;12.30;6.72;;;;;;;1.12;51.28;100177.09;4945893;27;20051;-63
2023/03/17 05:49:17;;;;;;;17.33;7.45;;;;;;;0.91;51.93;100068.63;4946544;27;20051;-63
2023/03/17 05:51:48;;;;;;;14.20;7.13;;;;;;;1.45;51.21;100174.34;4943870;27;20921;-63
2023/03/17 05:54:21;;;;;;;12.52;6.80;;;;;;;1.17;49.52;100178.06;4945106;27;20545;-63
2023/03/17 05:56:51;;;;;;;12.52;6.60;;;;;;;1.26;51.07;100177.41;4940078;27;20052;-63
2023/03/17 05:59:22;;;;;;;14.65;7.43;;;;;;;1.36;51.43;100171.59;4948238;27;20439;-63
2023/03/17 06:01:52;;;;;;;14.60;7.10;;;;;;;1.51;51.65;100163.28;4944610;27;20046;-63
2023/03/17 06:04:23;;;;;;;12.50;7.13;;;;;;;1.76;51.50;100163.75;4946134;27;20131;-63
2023/03/17 06:06:53;;;;;;;14.63;6.35;;;;;;;2.11;51.07;100175.50;4946252;27;20055;-63
2023/03/17 06:09:25;;;;;;;15.88;6.95;;;;;;;2.35;50.23;100169.88;4945267;27;20130;-63
2023/03/17 06:11:56;;;;;;;18.92;6.88;;;;;;;2.48;50.15;100176.09;4943042;27;20125;-63
2023/03/17 06:14:27;;;;;;;11.27;6.22;;;;;;;2.12;47.38;100136.03;4945813;27;20047;-63
2023/03/17 06:16:58;;;;;;;12.43;6.57;;;;;;;1.62;47.22;100110.28;4945957;27;20047;-63
2023/03/17 06:19:28;;;;;;;13.57;6.55;;;;;;;1.53;47.90;100148.75;4942294;27;20097;-64
2023/03/17 06:21:59;;;;;;;12.93;6.63;;;;;;;1.42;48.99;100188.84;4943626;27;20062;-64
2023/03/17 06:24:31;;;;;;;15.55;6.70;;;;;;;1.15;50.52;100202.94;4936422;27;20257;-63
2023/03/17 06:27:01;;;;;;;13.00;6.85;;;;;;;0.47;52.33;100132.84;4928471;27;20057;-63
2023/03/17 06:29:32;;;;;;;14.93;7.10;;;;;;;0.29;56.11;100159.88;4937395;28;20056;-63
2023/03/17 06:32:03;;;;;;;12.75;7.05;;;;;;;0.11;59.22;100205.69;4933990;27;20047;-62
2023/03/17 06:34:48;;;;;;;11.45;6.50;;;;;;;0.09;58.92;100240.75;4924970;27;20999;-63
2023/03/17 06:37:19;;;;;;;13.50;7.22;;;;;;;0.25;59.55;100244.56;4936011;28;20051;-63
2023/03/17 06:39:51;;;;;;;13.38;7.00;;;;;;;0.54;58.68;100237.56;4934016;28;20055;-64
2023/03/17 06:42:21;;;;;;;12.55;6.13;;;;;;;0.60;58.66;100217.13;4939009;28;20313;-64
2023/03/17 06:44:52;;;;;;;12.43;6.25;;;;;;;0.83;57.80;100238.25;4936561;27;20056;-64
2023/03/17 06:47:23;;;;;;;10.77;6.18;;;;;;;0.89;55.42;100234.94;4933050;28;20055;-64
2023/03/17 06:49:54;;;;;;;12.73;6.75;;;;;;;0.54;55.79;100224.72;4934644;28;20047;-64
2023/03/17 06:52:25;;;;;;;14.00;5.88;;;;;;;0.49;55.61;100249.44;4934346;28;20051;-64
2023/03/17 06:54:57;;;;;;;9.82;5.25;;;;;;;0.42;54.87;100254.47;4933560;28;20475;-64
2023/03/17 06:57:28;;;;;;;12.20;5.72;;;;;;;0.12;54.50;100238.25;4932681;28;20074;-64
2023/03/17 06:59:58;;;;;;;11.00;5.43;;;;;;;-0.03;55.23;100247.28;4934747;28;20059;-64
2023/03/17 07:02:29;;;;;;;14.38;5.95;;;;;;;-0.17;54.75;100271.78;4933522;28;20044;-64
2023/03/17 07:05:01;;;;;;;15.23;6.95;;;;;;;-0.24;55.79;100267.28;4934494;28;20055;-64
2023/03/17 07:07:33;;;;;;;15.75;6.63;;;;;;;-0.50;55.35;100246.91;4928214;28;20053;-64
2023/03/17 07:10:09;;;;;;;9.07;5.65;;;;;;;-0.70;56.20;100258.28;4935682;28;20060;-64
2023/03/17 07:12:39;;;;;;;11.45;5.32;;;;;;;-0.98;59.21;100283.13;4935348;28;20055;-63
2023/03/17 07:15:12;;;;;;;12.32;6.40;;;;;;;-1.29;62.00;100265.06;4934897;28;20159;-63
2023/03/17 07:17:43;;;;;;;21.17;9.32;;;;;;;-1.20;62.88;100290.97;4922795;28;20048;-63
2023/03/17 07:20:14;;;;;;;10.70;6.20;;;;;;;-1.10;63.32;100255.44;4935479;28;20050;-63
2023/03/17 07:22:45;;;;;;;9.93;5.55;;;;;;;-0.84;62.53;100275.84;4931713;28;20054;-63
2023/03/17 07:25:17;;;;;;;10.70;5.38;;;;;;;-0.90;61.73;100281.69;4914573;28;20056;-63
2023/03/17 07:27:48;;;;;;;9.95;5.38;;;;;;;-1.01;61.97;100288.16;4913831;28;20071;-63
2023/03/17 07:30:21;;;;;;;11.73;5.72;;;;;;;-0.97;61.91;100310.53;4914403;28;20052;-64
2023/03/17 07:32:52;;;;;;;7.82;5.00;;;;;;;-0.85;61.42;100288.63;4906817;28;20045;-64
2023/03/17 07:35:23;;;;;;;9.05;4.80;;;;;;;-0.75;61.56;100306.03;4917921;28;20499;-63
2023/03/17 07:37:54;;;;;;;9.32;4.72;;;;;;;-0.84;61.33;100310.91;4917411;28;20056;-63
2023/03/17 07:40:26;;;;;;;13.13;5.78;;;;;;;-0.92;61.21;100313.25;4918108;28;20052;-63
2023/03/17 07:42:57;;;;;;;12.07;5.70;;;;;;;-1.04;61.10;100318.84;4917673;28;20059;-63
2023/03/17 07:45:28;;;;;;;9.82;5.20;;;;;;;-1.24;61.57;100319.91;4916801;28;20066;-63
2023/03/17 07:48:00;;;;;;;16.40;6.15;;;;;;;-1.55;61.35;100298.41;4917360;28;20059;-62
2023/03/17 07:50:30;;;;;;;13.55;5.47;;;;;;;-1.55;61.57;100313.78;4917665;28;20137;-62
2023/03/17 07:53:01;;;;;;;12.15;5.80;;;;;;;-1.57;61.93;100335.94;4914810;28;20562;-62
2023/03/17 07:55:35;;;;;;;14.93;5.22;;;;;;;-2.06;62.20;100257.44;4918174;28;20630;-63
2023/03/17 07:58:06;;;;;;;15.50;6.30;;;;;;;-1.75;62.67;100349.88;4917315;28;20112;-62
2023/03/17 08:00:37;;;;;;;8.48;5.10;;;;;;;-1.83;62.63;100338.47;4917030;28;20058;-62
2023/03/17 08:03:08;;;;;;;10.68;5.65;;;;;;;-1.74;63.69;100348.16;4918345;28;20066;-62
2023/03/17 08:05:39;;;;;;;9.70;5.32;;;;;;;-1.60;64.21;100351.19;4917328;28;20064;-62
2023/03/17 08:08:10;;;;;;;11.48;5.95;;;;;;;-1.59;64.37;100358.06;4918172;28;20052;-62
2023/03/17 08:10:42;;;;;;;13.07;6.43;;;;;;;-1.69;64.76;100361.16;4915168;28;20457;-62
2023/03/17 08:13:13;;;;;;;11.20;6.72;;;;;;;-1.95;65.63;100348.28;4918712;28;20175;-62
2023/03/17 08:15:45;;;;;;;12.63;5.78;;;;;;;-2.32;67.66;100352.09;4917502;28;20114;-61
2023/03/17 08:18:15;;;;;;;9.18;5.80;;;;;;;-2.46;68.72;100359.25;4918137;28;20060;-62
2023/03/17 08:20:46;;;;;;;11.15;6.80;;;;;;;-2.40;69.58;100356.03;4917844;28;20463;-61
2023/03/17 08:23:17;;;;;;;10.02;6.38;;;;;;;-2.33;69.71;100354.59;4926988;28;20516;-61
2023/03/17 08:25:50;;;;;;;12.07;6.72;;;;;;;-2.25;70.73;100348.06;4939192;27;20055;-62
2023/03/17 08:28:21;;;;;;;8.02;5.35;;;;;;;-2.05;70.83;100352.19;4934885;27;20120;-62
2023/03/17 08:30:52;;;;;;;13.57;6.60;;;;;;;-2.03;70.96;100352.25;4938273;27;20979;-62
2023/03/17 08:33:24;;;;;;;13.25;6.50;;;;;;;-1.97;71.18;100344.81;4938480;28;20039;-62
2023/03/17 08:35:57;;;;;;;15.27;6.30;;;;;;;-1.88;71.24;100354.50;4941169;27;20052;-62
2023/03/17 08:38:31;;;;;;;11.18;6.22;;;;;;;-2.03;70.95;100349.69;4938202;27;20076;-62
2023/03/17 08:41:05;;;;;;;12.95;6.40;;;;;;;-2.04;71.81;100350.53;4929822;27;20076;-62
2023/03/17 08:43:37;;;;;;;12.05;6.20;;;;;;;-2.00;72.36;100339.56;4937635;27;20105;-61
2023/03/17 08:46:13;;;;;;;11.18;5.97;;;;;;;-1.89;73.22;100330.59;4938546;27;20052;-61
2023/03/17 08:48:52;;;;;;;12.90;6.55;;;;;;;-1.86;72.47;100330.69;4927715;27;20063;-61
2023/03/17 08:51:30;;;;;;;14.32;6.65;;;;;;;-1.84;73.41;100320.50;4920442;28;20043;-61
2023/03/17 08:54:00;;;;;;;10.45;6.88;;;;;;;-1.84;73.22;100318.81;4936492;27;20056;-62
2023/03/17 08:56:33;;;;;;;11.70;6.28;;;;;;;-1.71;73.61;100326.91;4932330;27;20715;-62
2023/03/17 08:59:04;;;;;;;13.07;6.18;;;;;;;-1.71;73.62;100321.78;4936941;28;20047;-62
2023/03/17 09:01:38;;;;;;;14.27;6.85;;;;;;;-1.71;73.22;100314.09;4936107;27;20039;-62
2023/03/17 09:04:09;;;;;;;12.20;7.10;;;;;;;-1.83;72.93;100317.97;4949484;27;20483;-62
2023/03/17 09:06:40;;;;;;;15.60;6.97;;;;;;;-1.90;73.14;100316.00;4936275;27;20060;-62
2023/03/17 09:09:35;;;;;;;13.10;6.63;;;;;;;-1.88;73.61;100324.63;4923503;28;20061;-62
2023/03/17 09:12:08;;;;;;;12.68;6.22;;;;;;;-1.74;73.38;100333.66;4937169;27;20060;-62
2023/03/17 09:14:39;;;;;;;11.70;6.75;;;;;;;-1.69;72.99;100353.47;4936347;28;20051;-62
2023/03/17 09:17:14;;;;;;;11.02;6.95;;;;;;;-1.75;72.62;100346.41;4926602;28;20055;-62
2023/03/17 09:19:47;;;;;;;11.45;6.80;;;;;;;-1.85;74.14;100347.78;4936729;27;20507;-61
2023/03/17 09:22:19;;;;;;;12.10;6.90;;;;;;;-2.13;76.01;100343.38;4936750;27;20143;-62
2023/03/17 09:24:50;;;;;;;11.98;7.18;;;;;;;-2.34;77.04;100348.59;4936426;28;20040;-61
2023/03/17 09:27:22;;;;;;;15.27;6.80;;;;;;;-2.68;78.19;100300.41;4933619;27;21512;-62
2023/03/17 09:29:53;;;;;;;15.43;8.07;;;;;;;-2.53;79.43;100358.97;4937682;27;20147;-62
2023/03/17 09:32:27;;;;;;;15.32;8.18;;;;;;;-2.58;79.97;100357.91;4937488;27;20054;-62
2023/03/17 09:35:01;;;;;;;16.35;8.23;;;;;;;-2.50;80.51;100351.38;4934708;27;20759;-63
2023/03/17 09:37:31;;;;;;;18.77;8.75;;;;;;;-2.38;80.50;100344.16;4942154;28;21699;-63
2023/03/17 09:40:02;;;;;;;15.80;8.35;;;;;;;-2.27;80.34;100357.34;4940199;27;20226;-62
2023/03/17 09:42:50;;;;;;;13.27;7.60;;;;;;;-2.19;80.27;100359.41;4937053;27;20043;-62
2023/03/17 09:45:33;;;;;;;14.25;7.63;;;;;;;-2.16;80.21;100358.63;4923013;28;20052;-63
2023/03/17 09:48:25;;;;;;;12.02;6.88;;;;;;;-2.14;79.98;100345.91;4926234;28;20067;-63
2023/03/17 09:51:01;;;;;;;15.13;6.82;;;;;;;-2.13;79.75;100347.63;4925719;27;20044;-63
2023/03/17 09:53:34;;;;;;;14.95;8.45;;;;;;;-2.21;79.71;100353.34;4930914;27;20106;-62
2023/03/17 09:56:12;;;;;;;14.95;7.25;;;;;;;-2.18;79.85;100363.69;4935594;28;20048;-62
2023/03/17 09:58:54;;;;;;;14.73;8.55;;;;;;;-2.12;79.38;100369.84;4926022;27;20052;-62
2023/03/17 10:01:25;;;;;;;15.43;8.50;;;;;;;-2.17;78.96;100359.47;4927085;27;20066;-63
2023/03/17 10:03:56;;;;;;;14.88;7.55;;;;;;;-2.08;79.47;100356.34;4934469;28;20057;-62
2023/03/17 10:06:39;;;;;;;15.55;8.02;;;;;;;-2.08;79.29;100356.34;4935839;27;20136;-62
2023/03/17 10:09:22;;;;;;;13.00;7.05;;;;;;;-2.22;79.41;100328.56;4922429;27;20110;-62
2023/03/17 10:15:05;;;;;;;15.32;7.78;;;;;;;-2.48;79.05;100288.34;4934439;28;20712;-63
2023/03/17 10:17:40;;;;;;;14.27;7.93;;;;;;;-2.19;79.82;100333.78;4935953;28;20120;-63
2023/03/17 10:20:18;;;;;;;16.42;8.15;;;;;;;-2.04;80.59;100358.22;4934648;27;20049;-63
2023/03/17 10:22:52;;;;;;;15.52;7.53;;;;;;;-2.01;80.61;100363.44;4932210;27;20475;-63
2023/03/17 10:25:25;;;;;;;16.80;6.97;;;;;;;-2.02;80.99;100374.47;4905137;28;20060;-63
2023/03/17 10:28:00;;;;;;;12.35;7.20;;;;;;;-2.06;80.92;100375.19;4915199;28;20052;-63
2023/03/17 10:30:37;;;;;;;12.60;7.22;;;;;;;-2.04;81.37;100355.66;4912709;28;20111;-63
2023/03/17 10:33:09;;;;;;;12.15;6.80;;;;;;;-1.93;80.97;100382.50;4914159;28;20048;-63
2023/03/17 10:35:40;;;;;;;16.10;7.60;;;;;;;-1.99;80.94;100366.94;4919213;28;20056;-63
2023/03/17 10:38:22;;;;;;;12.20;7.38;;;;;;;-2.06;80.78;100364.97;4913136;28;20166;-63
2023/03/17 10:40:58;;;;;;;16.63;7.07;;;;;;;-1.97;80.87;100381.53;4904083;28;20106;-63
2023/03/17 10:43:43;;;;;;;11.90;6.22;;;;;;;-1.91;80.79;100374.88;4906095;28;20483;-63
2023/03/17 10:46:47;;;;;;;15.63;7.65;;;;;;;-1.85;80.72;100386.19;4905114;28;20052;-62
2023/03/17 10:49:25;;;;;;;13.00;7.13;;;;;;;-1.88;80.69;100380.97;4902105;28;20048;-63
2023/03/17 10:52:07;;;;;;;16.10;8.00;;;;;;;-1.88;81.04;100374.97;4915225;28;20054;-63
2023/03/17 10:54:42;;;;;;;14.85;6.80;;;;;;;-1.96;80.44;100388.38;4905328;28;20431;-63
2023/03/17 10:57:14;;;;;;;16.60;8.07;;;;;;;-2.07;80.56;100388.81;4903918;28;20375;-63
2023/03/17 10:59:51;;;;;;;18.85;8.50;;;;;;;-2.24;81.06;100396.75;4914097;28;20053;-62
2023/03/17 11:02:35;;;;;;;13.20;6.00;;;;;;;-2.25;80.86;100389.88;4904366;28;20168;-63
2023/03/17 11:05:11;;;;;;;11.52;6.47;;;;;;;-2.30;80.06;100372.59;4903754;28;20144;-62
2023/03/17 11:07:42;;;;;;;10.65;6.40;;;;;;;-2.19;80.11;100395.22;4907053;28;20060;-62
2023/03/17 11:10:19;;;;;;;10.93;6.15;;;;;;;-2.29;79.54;100382.91;4915348;28;20055;-62
2023/03/17 11:12:57;;;;;;;12.30;6.90;;;;;;;-2.33;79.10;100380.19;4913326;28;20340;-62
2023/03/17 11:15:36;;;;;;;13.90;6.80;;;;;;;-2.32;79.53;100382.81;4901846;28;20056;-63
2023/03/17 11:18:20;;;;;;;13.55;7.38;;;;;;;-2.26;79.56;100382.16;4906208;28;20498;-63
2023/03/17 11:20:57;;;;;;;14.90;7.03;;;;;;;-2.32;79.44;100380.25;4910277;28;20146;-63
2023/03/17 11:23:49;;;;;;;17.20;6.72;;;;;;;-3.00;79.71;100276.19;4912968;28;20057;-62
2023/03/17 11:26:36;;;;;;;17.35;7.60;;;;;;;-2.48;80.07;100371.09;4899489;28;20058;-62
2023/03/17 11:29:43;;;;;;;15.35;6.75;;;;;;;-2.38;80.32;100392.78;4904290;28;20048;-63
2023/03/17 11:32:29;;;;;;;19.63;8.07;;;;;;;-2.54;80.27;100385.38;4902755;28;20052;-62
2023/03/17 11:35:22;;;;;;;18.63;7.82;;;;;;;-2.65;80.38;100382.38;4903640;28;20053;-63
2023/03/17 11:38:10;;;;;;;13.18;6.63;;;;;;;-2.82;80.63;100376.63;4892626;28;20051;-62
2023/03/17 11:41:10;;;;;;;16.08;7.45;;;;;;;-2.74;80.91;100388.03;4904700;28;20083;-63
2023/03/17 11:43:58;;;;;;;12.55;6.10;;;;;;;-2.75;80.61;100385.41;4899213;28;21320;-62
2023/03/17 11:46:33;;;;;;;13.50;6.50;;;;;;;-2.90;80.62;100360.09;4903203;28;20066;-62
2023/03/17 11:49:23;;;;;;;18.45;6.95;;;;;;;-2.73;80.36;100399.97;4904656;28;20170;-62
2023/03/17 11:52:18;;;;;;;14.35;6.65;;;;;;;-2.84;79.80;100380.81;4903023;28;20066;-62
2023/03/17 11:54:58;;;;;;;10.98;5.38;;;;;;;-2.70;79.98;100394.13;4903172;28;20078;-62